Time;durP1;ratioP1;P1;durP2;ratioP2;P2;SDS_P1;SDS_P2;PMS_P1;PMS_P2;Temp;Humidity;BMP_temperature;BMP_pressure;BME280_temperature;BME280_humidity;BME280_pressure;Samples;Min_cycle;Max_cycle;Signal;HPM_P1;HPM_P2
2023/01/23 00:01:48;;;;;;;24.30;12.50;;;;;;;2.82;78.74;103373.06;5011968;28;20032;-59
2023/01/23 00:04:14;;;;;;;25.27;11.52;;;;;;;2.81;78.54;103378.22;5007152;28;20034;-59
2023/01/23 00:06:40;;;;;;;22.67;10.77;;;;;;;2.82;78.85;103378.25;5010088;28;20030;-59
2023/01/23 00:09:06;;;;;;;23.75;11.85;;;;;;;2.82;78.42;103385.16;5007147;28;20037;-61
2023/01/23 00:11:32;;;;;;;24.60;12.80;;;;;;;2.81;78.51;103383.41;5013787;28;20507;-57
2023/01/23 00:13:59;;;;;;;23.15;11.35;;;;;;;2.80;78.52;103379.09;5017852;28;20080;-61
2023/01/23 00:16:26;;;;;;;20.20;12.13;;;;;;;2.81;78.59;103380.81;5008648;28;20041;-60
2023/01/23 00:18:52;;;;;;;21.48;11.38;;;;;;;2.81;78.68;103380.81;5009531;28;20392;-59
2023/01/23 00:21:21;;;;;;;20.52;10.40;;;;;;;2.79;78.67;103383.41;5009251;28;20493;-60
2023/01/23 00:23:50;;;;;;;27.15;13.25;;;;;;;2.78;78.72;103378.19;5010784;28;20104;-57
2023/01/23 00:26:22;;;;;;;21.10;11.45;;;;;;;2.76;78.58;103382.47;5012479;28;20026;-60
2023/01/23 00:28:49;;;;;;;23.50;11.90;;;;;;;2.72;78.60;103376.38;5009376;28;20029;-62
2023/01/23 00:31:20;;;;;;;23.92;12.68;;;;;;;2.74;78.76;103380.72;5009341;28;20045;-61
2023/01/23 00:33:46;;;;;;;22.13;11.67;;;;;;;2.74;78.64;103380.72;4999973;28;20117;-61
2023/01/23 00:36:13;;;;;;;27.45;12.00;;;;;;;2.74;78.65;103385.94;5003593;28;20057;-62
2023/01/23 00:38:39;;;;;;;26.42;12.90;;;;;;;2.74;78.62;103388.53;5003794;28;20568;-62
2023/01/23 00:41:05;;;;;;;23.20;11.95;;;;;;;2.74;78.57;103390.25;5008669;28;20133;-59
2023/01/23 00:43:31;;;;;;;25.98;12.85;;;;;;;2.73;78.81;103386.78;5009778;28;20117;-61
2023/01/23 00:45:57;;;;;;;23.92;11.43;;;;;;;2.76;78.90;103387.69;5005953;28;20025;-60
2023/01/23 00:48:23;;;;;;;24.17;11.35;;;;;;;2.77;78.78;103394.63;5012331;28;20704;-59
2023/01/23 00:50:48;;;;;;;24.08;11.95;;;;;;;2.77;78.41;103394.63;5010417;28;20034;-58
2023/01/23 00:53:14;;;;;;;23.67;12.95;;;;;;;2.73;78.66;103404.97;5014394;28;20443;-59
2023/01/23 00:55:40;;;;;;;23.42;12.75;;;;;;;2.72;78.87;103407.56;5012604;28;20700;-58
2023/01/23 00:58:07;;;;;;;21.85;11.07;;;;;;;2.70;78.74;103404.91;5009294;28;20034;-57
2023/01/23 01:00:32;;;;;;;23.20;12.73;;;;;;;2.70;78.85;103404.06;5004074;28;20026;-62
2023/01/23 01:02:58;;;;;;;24.95;12.75;;;;;;;2.70;78.87;103404.91;5006798;28;20041;-58
2023/01/23 01:05:23;;;;;;;23.02;12.07;;;;;;;2.67;78.69;103399.66;5007956;28;20037;-57
2023/01/23 01:07:49;;;;;;;21.88;12.07;;;;;;;2.64;78.87;103394.44;5004246;28;20095;-57
2023/01/23 01:10:15;;;;;;;23.45;12.18;;;;;;;2.63;78.87;103404.78;5007650;28;20045;-61
2023/01/23 01:12:40;;;;;;;23.98;12.68;;;;;;;2.59;79.09;103401.25;5008852;28;20037;-62
2023/01/23 01:15:07;;;;;;;26.15;12.90;;;;;;;2.58;79.00;103400.34;5006591;28;20067;-61
2023/01/23 01:17:33;;;;;;;22.27;12.48;;;;;;;2.59;79.03;103401.25;5003399;28;20025;-61
2023/01/23 01:19:58;;;;;;;18.92;11.02;;;;;;;2.60;79.02;103405.59;5004836;28;20030;-62
2023/01/23 01:22:24;;;;;;;25.17;11.80;;;;;;;2.59;79.00;103399.50;5011400;28;20057;-62
2023/01/23 01:24:49;;;;;;;25.38;12.10;;;;;;;2.55;79.00;103405.53;5012048;28;20096;-58
2023/01/23 01:27:15;;;;;;;19.75;10.95;;;;;;;2.54;79.03;103416.78;5010956;28;20037;-59
2023/01/23 01:29:40;;;;;;;22.35;13.02;;;;;;;2.51;79.28;103419.31;5005674;28;20103;-57
2023/01/23 01:32:05;;;;;;;24.85;12.25;;;;;;;2.48;79.26;103431.38;5002372;28;20370;-61
2023/01/23 01:34:31;;;;;;;26.55;12.40;;;;;;;2.47;79.37;103425.28;5008178;28;20038;-60
2023/01/23 01:36:57;;;;;;;25.98;12.70;;;;;;;2.46;79.38;103431.31;5009920;28;20041;-57
2023/01/23 01:39:22;;;;;;;24.17;12.55;;;;;;;2.48;79.25;103424.44;5013800;28;20108;-57
2023/01/23 01:41:47;;;;;;;23.42;12.82;;;;;;;2.47;79.33;103417.47;5011143;28;20049;-59
2023/01/23 01:44:18;;;;;;;25.80;12.30;;;;;;;2.46;79.35;103418.34;5006365;28;20026;-57
2023/01/23 01:46:47;;;;;;;23.83;12.55;;;;;;;2.46;79.30;103427.88;5005767;28;20060;-60
2023/01/23 01:49:22;;;;;;;21.40;11.70;;;;;;;2.47;79.37;103422.69;4996622;28;20034;-62
2023/01/23 01:52:07;;;;;;;27.60;13.32;;;;;;;2.46;79.45;103420.06;4998156;28;20038;-61
2023/01/23 01:54:47;;;;;;;23.65;12.50;;;;;;;2.47;79.20;103416.63;5000062;28;20038;-60
2023/01/23 01:57:22;;;;;;;19.45;11.18;;;;;;;2.46;79.13;103425.25;5000926;28;20120;-59
2023/01/23 02:00:03;;;;;;;22.83;11.32;;;;;;;2.46;79.35;103417.47;4995258;28;20698;-62
2023/01/23 02:02:34;;;;;;;25.52;12.45;;;;;;;2.44;78.92;103427.81;4999469;28;20094;-58
2023/01/23 02:05:08;;;;;;;21.60;11.45;;;;;;;2.44;79.17;103428.72;4999472;28;20029;-59
2023/01/23 02:07:43;;;;;;;21.08;11.43;;;;;;;2.48;79.16;103418.38;4997570;28;20117;-59
2023/01/23 02:10:10;;;;;;;23.27;11.77;;;;;;;2.48;79.17;103418.38;5001402;28;20488;-57
2023/01/23 02:12:37;;;;;;;19.88;10.80;;;;;;;2.48;79.24;103423.56;5008092;28;20026;-55
2023/01/23 02:15:05;;;;;;;21.05;11.43;;;;;;;2.46;79.19;103420.06;5006461;28;20052;-60
2023/01/23 02:17:32;;;;;;;20.42;10.95;;;;;;;2.44;79.38;103423.50;5013457;28;20108;-58
2023/01/23 02:20:12;;;;;;;21.70;10.77;;;;;;;2.46;79.36;103425.25;5002459;28;20492;-56
2023/01/23 02:23:07;;;;;;;23.55;11.45;;;;;;;2.44;79.14;103433.91;5003857;28;20036;-57
2023/01/23 02:25:43;;;;;;;19.52;9.77;;;;;;;2.45;79.23;103434.75;5000731;28;20030;-59
2023/01/23 02:28:13;;;;;;;21.25;10.80;;;;;;;2.44;79.19;103439.09;5003385;28;20033;-57
2023/01/23 02:30:41;;;;;;;20.92;11.00;;;;;;;2.42;79.34;103445.13;5004956;28;20033;-57
2023/01/23 02:33:11;;;;;;;22.95;10.60;;;;;;;2.42;79.23;103446.00;5007747;28;20033;-59
2023/01/23 02:35:37;;;;;;;22.77;11.88;;;;;;;2.43;79.29;103439.94;5009740;28;20037;-57
2023/01/23 02:38:05;;;;;;;20.50;10.48;;;;;;;2.43;79.25;103441.66;5009951;28;20033;-56
2023/01/23 02:40:37;;;;;;;24.30;11.00;;;;;;;2.40;79.29;103447.69;4999018;28;20037;-56
2023/01/23 02:43:05;;;;;;;19.85;10.55;;;;;;;2.41;79.30;103439.03;5007334;28;20036;-57
2023/01/23 02:45:31;;;;;;;18.35;9.27;;;;;;;2.42;79.23;103438.19;5007044;28;20057;-55
2023/01/23 02:47:57;;;;;;;21.35;10.40;;;;;;;2.40;79.06;103441.63;5011752;28;20068;-56
2023/01/23 02:50:22;;;;;;;18.35;10.40;;;;;;;2.40;79.35;103442.47;5015636;28;20384;-55
2023/01/23 02:52:49;;;;;;;20.17;10.48;;;;;;;2.40;79.26;103446.81;5012796;28;20033;-56
2023/01/23 02:55:16;;;;;;;20.13;9.75;;;;;;;2.37;79.03;103452.81;5003447;28;20033;-59
2023/01/23 02:57:44;;;;;;;20.17;9.85;;;;;;;2.37;79.26;103445.00;5009597;28;20420;-59
2023/01/23 03:00:18;;;;;;;19.02;10.38;;;;;;;2.36;79.23;103443.25;5009884;28;20083;-58
2023/01/23 03:02:46;;;;;;;20.52;9.93;;;;;;;2.35;79.29;103438.91;5009568;28;20087;-58
2023/01/23 03:05:11;;;;;;;21.85;10.38;;;;;;;2.35;78.95;103441.50;5014594;28;20018;-61
2023/01/23 03:07:37;;;;;;;19.35;9.23;;;;;;;2.35;79.32;103444.09;5012030;28;20501;-58
2023/01/23 03:10:04;;;;;;;21.08;10.38;;;;;;;2.34;79.19;103442.38;5008299;28;20451;-60
2023/01/23 03:12:29;;;;;;;19.92;10.75;;;;;;;2.32;79.22;103444.06;5006110;28;20037;-58
2023/01/23 03:14:55;;;;;;;20.83;10.32;;;;;;;2.32;79.11;103446.66;5014074;28;20057;-59
2023/01/23 03:17:21;;;;;;;19.83;9.93;;;;;;;2.33;79.19;103461.41;5010255;28;20037;-57
2023/01/23 03:19:47;;;;;;;19.42;9.88;;;;;;;2.32;79.14;103458.75;5010337;28;20025;-58
2023/01/23 03:22:13;;;;;;;20.00;10.50;;;;;;;2.32;79.18;103454.47;5011421;28;20498;-61
2023/01/23 03:24:39;;;;;;;21.52;10.55;;;;;;;2.35;79.11;103464.03;5004829;28;20037;-59
2023/01/23 03:27:04;;;;;;;19.80;9.85;;;;;;;2.35;78.96;103462.28;5012770;28;20080;-57
2023/01/23 03:32:15;;;;;;;18.38;10.68;;;;;;;2.32;78.94;103463.97;5006255;28;20080;-55
2023/01/23 03:34:41;;;;;;;19.77;11.20;;;;;;;2.32;79.02;103464.84;5016827;28;20029;-57
2023/01/23 03:37:08;;;;;;;18.70;10.00;;;;;;;2.32;78.88;103469.16;5008720;28;20584;-61
2023/01/23 03:42:17;;;;;;;17.00;9.65;;;;;;;2.33;79.09;103469.19;5011910;28;20103;-58
2023/01/23 03:44:43;;;;;;;14.18;8.95;;;;;;;2.32;78.97;103470.03;5012707;28;20424;-61
2023/01/23 03:47:09;;;;;;;19.67;10.57;;;;;;;2.32;78.86;103475.25;5011719;28;20034;-59
2023/01/23 03:49:35;;;;;;;19.52;9.70;;;;;;;2.35;78.91;103475.28;5004703;28;20030;-57
2023/01/23 03:52:01;;;;;;;18.90;9.60;;;;;;;2.34;79.13;103473.56;5007583;28;20463;-56
2023/01/23 03:54:26;;;;;;;17.88;9.88;;;;;;;2.35;78.81;103477.88;5008857;28;20053;-56
2023/01/23 03:56:52;;;;;;;17.27;9.60;;;;;;;2.33;78.87;103473.50;5013106;28;20516;-57
2023/01/23 03:59:18;;;;;;;21.95;11.57;;;;;;;2.33;78.66;103466.59;5011556;28;20388;-59
2023/01/23 04:01:43;;;;;;;20.33;9.52;;;;;;;2.32;78.80;103470.03;5010021;28;20033;-57
2023/01/23 04:04:09;;;;;;;20.23;10.82;;;;;;;2.33;78.86;103476.09;5007754;28;20026;-60
2023/01/23 04:06:34;;;;;;;18.95;10.25;;;;;;;2.35;79.19;103477.88;5006686;28;20117;-62
2023/01/23 04:09:00;;;;;;;20.15;10.85;;;;;;;2.37;78.85;103477.94;5009676;28;20038;-62
2023/01/23 04:11:27;;;;;;;20.08;11.35;;;;;;;2.35;78.73;103480.47;5002311;28;20125;-60
2023/01/23 04:13:53;;;;;;;22.45;12.18;;;;;;;2.36;78.76;103494.38;5010326;28;20066;-59
2023/01/23 04:16:20;;;;;;;20.27;11.02;;;;;;;2.36;78.83;103487.44;5011057;28;20219;-57
2023/01/23 04:18:46;;;;;;;17.15;10.15;;;;;;;2.37;78.92;103489.19;5010892;28;20026;-61
2023/01/23 04:21:11;;;;;;;19.10;9.95;;;;;;;2.40;78.67;103488.41;5009229;28;20080;-60
2023/01/23 04:23:37;;;;;;;23.67;10.98;;;;;;;2.43;78.78;103493.63;5009917;28;20033;-58
2023/01/23 04:26:02;;;;;;;17.95;9.82;;;;;;;2.43;78.68;103488.44;5011118;28;20030;-57
2023/01/23 04:28:28;;;;;;;23.42;12.38;;;;;;;2.44;78.50;103490.19;5017993;28;20025;-59
2023/01/23 04:30:53;;;;;;;21.38;10.60;;;;;;;2.44;78.37;103491.09;5012596;28;20052;-60
2023/01/23 04:33:20;;;;;;;21.02;11.20;;;;;;;2.41;78.23;103496.22;5013272;28;20033;-60
2023/01/23 04:36:01;;;;;;;21.52;10.82;;;;;;;2.40;78.49;103498.78;5011172;28;20389;-58
2023/01/23 04:38:29;;;;;;;31.90;15.43;;;;;;;2.41;78.44;103500.56;5006187;28;20026;-58
2023/01/23 04:40:54;;;;;;;25.15;11.27;;;;;;;2.40;78.23;103504.84;5003945;28;20350;-58
2023/01/23 04:43:20;;;;;;;19.67;9.93;;;;;;;2.37;78.37;103504.78;5016132;28;20477;-59
2023/01/23 04:45:49;;;;;;;23.58;11.82;;;;;;;2.33;78.37;103508.19;5010384;28;20501;-58
2023/01/23 04:48:14;;;;;;;23.67;10.90;;;;;;;2.33;78.34;103518.59;5017985;28;20103;-61
2023/01/23 04:50:40;;;;;;;24.50;10.70;;;;;;;2.32;78.79;103519.41;5006441;28;20481;-59
2023/01/23 04:53:06;;;;;;;20.60;10.32;;;;;;;2.33;78.45;103513.38;5005171;28;20029;-62
2023/01/23 04:55:32;;;;;;;19.35;10.30;;;;;;;2.33;78.20;103504.69;5004422;28;20092;-62
2023/01/23 04:57:58;;;;;;;21.70;10.77;;;;;;;2.32;78.36;103505.53;5006569;28;20049;-62
2023/01/23 05:00:24;;;;;;;23.17;10.73;;;;;;;2.33;78.36;103508.19;5004461;28;20041;-57
2023/01/23 05:02:50;;;;;;;22.63;10.57;;;;;;;2.33;78.36;103521.19;5004810;28;20394;-59
2023/01/23 05:05:16;;;;;;;22.92;11.48;;;;;;;2.34;78.25;103525.53;5015154;28;20029;-58
2023/01/23 05:07:43;;;;;;;20.90;10.98;;;;;;;2.36;78.49;103512.56;5004005;28;20116;-59
2023/01/23 05:10:09;;;;;;;18.55;10.45;;;;;;;2.35;78.36;103516.88;5001956;28;20072;-55
2023/01/23 05:12:35;;;;;;;24.88;12.13;;;;;;;2.34;78.34;103522.94;5002192;28;20038;-56
2023/01/23 05:15:01;;;;;;;22.48;11.13;;;;;;;2.34;78.27;103527.25;5007682;28;20037;-58
2023/01/23 05:17:26;;;;;;;24.98;13.48;;;;;;;2.35;78.39;103527.25;5004117;28;20026;-55
2023/01/23 05:19:52;;;;;;;32.72;14.90;;;;;;;2.38;78.22;103532.53;5003029;28;20076;-56
2023/01/23 05:22:21;;;;;;;28.48;12.45;;;;;;;2.38;78.14;103536.88;5004510;28;20121;-57
2023/01/23 05:24:47;;;;;;;25.08;13.10;;;;;;;2.35;77.90;103537.66;5006406;28;20036;-58
2023/01/23 05:27:13;;;;;;;24.50;11.65;;;;;;;2.36;77.97;103534.22;5008313;28;20030;-58
2023/01/23 05:29:38;;;;;;;22.65;11.73;;;;;;;2.36;77.91;103539.41;5009179;28;20038;-63
2023/01/23 05:32:04;;;;;;;20.63;11.07;;;;;;;2.35;77.94;103535.06;4987427;28;20062;-60
2023/01/23 05:34:29;;;;;;;24.80;10.73;;;;;;;2.32;77.72;103535.00;5002235;28;20428;-62
2023/01/23 05:36:55;;;;;;;18.35;10.45;;;;;;;2.32;77.82;103542.81;4999133;28;20030;-59
2023/01/23 05:39:21;;;;;;;23.08;11.98;;;;;;;2.32;77.90;103544.50;4991022;28;20133;-60
2023/01/23 05:41:46;;;;;;;19.95;10.27;;;;;;;2.30;77.74;103539.28;5000671;28;20041;-62
2023/01/23 05:44:12;;;;;;;24.33;11.70;;;;;;;2.31;77.75;103546.25;5006777;28;20053;-62
2023/01/23 05:46:37;;;;;;;21.10;11.30;;;;;;;2.32;77.79;103537.59;5006609;28;20052;-58
2023/01/23 05:49:03;;;;;;;19.23;11.45;;;;;;;2.32;77.77;103542.81;5007045;28;20038;-65
2023/01/23 05:51:32;;;;;;;32.42;15.25;;;;;;;2.34;77.93;103548.03;5000084;28;20033;-57
2023/01/23 05:53:59;;;;;;;22.83;10.70;;;;;;;2.32;77.78;103553.19;5008408;28;20041;-55
2023/01/23 05:56:24;;;;;;;17.48;9.32;;;;;;;2.33;78.05;103552.34;5008383;28;20484;-60
2023/01/23 05:58:50;;;;;;;21.10;10.73;;;;;;;2.32;77.75;103553.19;5000919;28;20570;-59
2023/01/23 06:01:16;;;;;;;18.67;10.43;;;;;;;2.33;77.59;103557.56;5002073;28;20025;-62
2023/01/23 06:03:41;;;;;;;24.63;10.27;;;;;;;2.33;77.46;103560.16;5000354;28;20511;-59
2023/01/23 06:06:07;;;;;;;19.23;10.43;;;;;;;2.34;77.57;103567.13;5009537;28;20029;-60
2023/01/23 06:08:32;;;;;;;21.55;10.82;;;;;;;2.35;77.48;103568.84;5004452;28;20025;-61
2023/01/23 06:10:58;;;;;;;17.23;9.98;;;;;;;2.33;77.08;103575.75;4999225;28;20440;-60
2023/01/23 06:13:25;;;;;;;26.25;11.77;;;;;;;2.33;77.27;103575.75;5005111;28;20145;-59
2023/01/23 06:15:51;;;;;;;23.83;11.60;;;;;;;2.33;77.35;103575.75;5002979;28;20029;-59
2023/01/23 06:18:17;;;;;;;20.67;10.20;;;;;;;2.35;77.32;103584.44;5014229;28;20071;-56
2023/01/23 06:20:42;;;;;;;17.73;10.00;;;;;;;2.36;77.28;103586.19;5001687;28;20464;-57
2023/01/23 06:23:07;;;;;;;17.55;10.25;;;;;;;2.36;77.28;103575.78;5005266;28;20493;-58
2023/01/23 06:25:34;;;;;;;20.83;10.40;;;;;;;2.39;77.24;103580.19;5011359;28;20389;-58
2023/01/23 06:28:00;;;;;;;21.70;10.05;;;;;;;2.38;77.10;103584.50;5004094;28;20044;-59
2023/01/23 06:30:26;;;;;;;20.02;10.93;;;;;;;2.37;76.98;103582.75;5008379;28;20120;-56
2023/01/23 06:32:51;;;;;;;19.65;10.98;;;;;;;2.37;77.33;103577.56;5010516;28;20691;-55
2023/01/23 06:35:17;;;;;;;20.70;10.55;;;;;;;2.39;77.03;103580.19;5008928;28;20033;-55
2023/01/23 06:37:42;;;;;;;19.63;10.57;;;;;;;2.38;76.91;103594.91;5010584;28;20034;-57
2023/01/23 06:40:12;;;;;;;20.88;9.90;;;;;;;2.36;77.07;103587.91;5008767;28;20042;-59
2023/01/23 06:42:40;;;;;;;19.58;10.70;;;;;;;2.34;76.84;103592.19;5010437;28;20049;-58
2023/01/23 06:45:07;;;;;;;20.60;10.43;;;;;;;2.31;77.11;103593.03;5004221;28;20030;-57
2023/01/23 06:47:33;;;;;;;18.63;8.93;;;;;;;2.31;76.92;103597.31;5012094;28;20029;-56
2023/01/23 06:50:00;;;;;;;16.85;9.70;;;;;;;2.29;76.81;103595.56;5008875;28;20033;-61
2023/01/23 06:52:27;;;;;;;18.80;10.07;;;;;;;2.29;76.83;103599.91;5007042;28;20057;-59
2023/01/23 06:54:52;;;;;;;20.02;10.48;;;;;;;2.31;76.72;103600.81;5001423;28;20038;-64
2023/01/23 06:57:18;;;;;;;25.58;10.32;;;;;;;2.27;76.29;103607.63;5003881;28;20478;-55
2023/01/23 06:59:43;;;;;;;17.90;10.32;;;;;;;2.26;76.75;103615.41;5003822;28;20054;-61
2023/01/23 07:02:12;;;;;;;14.70;7.70;;;;;;;2.27;76.98;103622.38;5000754;28;20038;-57
2023/01/23 07:04:37;;;;;;;19.75;9.93;;;;;;;2.27;76.73;103614.56;5010230;28;20049;-57
2023/01/23 07:07:03;;;;;;;21.02;10.77;;;;;;;2.25;76.68;103618.84;5006254;28;20061;-64
2023/01/23 07:09:29;;;;;;;18.85;9.98;;;;;;;2.27;76.70;103617.19;5011114;28;20411;-55
2023/01/23 07:11:54;;;;;;;19.02;10.27;;;;;;;2.28;76.90;103612.00;5009337;28;20022;-56
2023/01/23 07:14:20;;;;;;;20.73;12.10;;;;;;;2.27;76.77;103614.56;5009020;28;20034;-60
2023/01/23 07:16:46;;;;;;;22.35;10.98;;;;;;;2.29;76.82;103621.56;5008960;28;20061;-61
2023/01/23 07:19:11;;;;;;;20.48;11.13;;;;;;;2.31;76.77;103619.00;5009021;28;20044;-62
2023/01/23 07:21:37;;;;;;;23.73;11.75;;;;;;;2.31;76.52;103624.19;5006477;28;20635;-57
2023/01/23 07:24:02;;;;;;;23.35;10.65;;;;;;;2.32;76.50;103620.75;5014121;22;20054;-58
2023/01/23 07:26:28;;;;;;;24.15;11.77;;;;;;;2.31;76.47;103632.00;5001203;28;20055;-58
2023/01/23 07:28:53;;;;;;;16.83;8.45;;;;;;;2.30;76.45;103632.84;5002264;28;20064;-55
2023/01/23 07:31:19;;;;;;;17.92;10.43;;;;;;;2.29;76.41;103631.09;5004540;28;20374;-54
2023/01/23 07:33:44;;;;;;;17.77;9.90;;;;;;;2.32;76.37;103636.34;5005669;28;20026;-55
2023/01/23 07:36:12;;;;;;;19.23;10.10;;;;;;;2.37;76.51;103639.91;5008204;28;20029;-55
2023/01/23 07:38:38;;;;;;;18.58;10.25;;;;;;;2.42;76.15;103640.06;5004898;28;20030;-56
2023/01/23 07:41:04;;;;;;;18.27;10.00;;;;;;;2.43;76.22;103641.78;5001784;28;20084;-56
2023/01/23 07:43:29;;;;;;;18.70;10.38;;;;;;;2.43;76.25;103645.28;5005257;28;20080;-56
2023/01/23 07:45:58;;;;;;;23.70;10.65;;;;;;;2.43;76.06;103637.47;5008210;28;20109;-55
2023/01/23 07:48:24;;;;;;;17.67;9.95;;;;;;;2.43;76.31;103634.88;5007631;28;20053;-54
2023/01/23 07:50:49;;;;;;;18.15;10.18;;;;;;;2.43;76.19;103649.56;5010924;28;20103;-57
2023/01/23 07:53:15;;;;;;;17.63;9.25;;;;;;;2.45;76.46;103637.50;5012710;28;20508;-54
2023/01/23 07:55:40;;;;;;;19.38;10.75;;;;;;;2.50;76.61;103635.00;5012617;28;20025;-55
2023/01/23 07:58:06;;;;;;;17.02;9.23;;;;;;;2.57;76.25;103636.91;5014909;28;20092;-56
2023/01/23 08:00:31;;;;;;;20.52;9.70;;;;;;;2.58;76.16;103638.66;5012201;28;20033;-54
2023/01/23 08:02:57;;;;;;;14.93;8.88;;;;;;;2.59;75.96;103635.22;5015098;28;20026;-54
2023/01/23 08:05:22;;;;;;;19.52;9.90;;;;;;;2.62;75.69;103644.81;5016977;28;20088;-56
2023/01/23 08:07:48;;;;;;;21.17;10.80;;;;;;;2.60;75.93;103639.59;5017616;28;20386;-57
2023/01/23 08:10:13;;;;;;;17.67;10.38;;;;;;;2.61;75.90;103643.94;5017741;28;20026;-56
2023/01/23 08:12:38;;;;;;;22.30;10.90;;;;;;;2.63;76.02;103647.47;5011477;28;20032;-55
2023/01/23 08:15:05;;;;;;;17.05;9.52;;;;;;;2.67;76.08;103648.41;5012128;28;20030;-54
2023/01/23 08:17:30;;;;;;;18.00;9.65;;;;;;;2.67;75.90;103643.19;5015077;28;20018;-53
2023/01/23 08:19:56;;;;;;;19.90;10.02;;;;;;;2.71;75.92;103650.22;5012448;28;20026;-57
2023/01/23 08:22:24;;;;;;;19.10;9.85;;;;;;;2.73;75.61;103654.59;5011398;28;20028;-56
2023/01/23 08:24:50;;;;;;;17.85;9.40;;;;;;;2.78;75.54;103652.09;5014320;28;20026;-56
2023/01/23 08:27:15;;;;;;;15.48;8.73;;;;;;;2.78;75.57;103656.44;5009133;28;20025;-58
2023/01/23 08:29:41;;;;;;;19.52;9.48;;;;;;;2.78;75.46;103659.03;5017480;28;20083;-57
2023/01/23 08:32:06;;;;;;;17.90;9.57;;;;;;;2.79;75.32;103661.66;5016723;28;20504;-59
2023/01/23 08:34:32;;;;;;;20.83;9.70;;;;;;;2.83;75.39;103660.91;5005343;28;20034;-57
2023/01/23 08:36:57;;;;;;;15.23;8.93;;;;;;;2.81;75.15;103664.28;5012035;28;20073;-57
2023/01/23 08:39:23;;;;;;;15.00;9.43;;;;;;;2.82;75.13;103668.66;5008410;28;20100;-59
2023/01/23 08:41:49;;;;;;;16.08;9.23;;;;;;;2.82;75.19;103669.53;5014685;28;20084;-57
2023/01/23 08:44:14;;;;;;;17.52;9.10;;;;;;;2.82;75.09;103668.66;5008700;28;20026;-54
2023/01/23 08:46:41;;;;;;;11.60;6.45;;;;;;;2.80;75.01;103670.34;5012741;28;20037;-56
2023/01/23 08:49:07;;;;;;;19.23;9.25;;;;;;;2.81;75.10;103665.19;5013041;28;20030;-57
2023/01/23 08:51:33;;;;;;;22.38;9.15;;;;;;;2.83;75.25;103675.59;5014782;28;20053;-57
2023/01/23 08:53:58;;;;;;;18.42;9.10;;;;;;;2.87;75.09;103670.50;5011777;28;20041;-55
2023/01/23 08:56:24;;;;;;;21.85;10.55;;;;;;;2.90;74.68;103672.31;5013385;28;20022;-57
2023/01/23 08:58:50;;;;;;;18.17;9.05;;;;;;;2.93;74.67;103672.38;5010870;28;20022;-56
2023/01/23 09:01:19;;;;;;;20.42;8.80;;;;;;;2.97;74.79;103668.97;5014252;28;20378;-57
2023/01/23 09:03:45;;;;;;;16.20;10.20;;;;;;;2.97;74.69;103674.19;5017697;28;20024;-58
2023/01/23 09:06:11;;;;;;;16.50;9.27;;;;;;;3.02;74.42;103682.97;5006435;28;20038;-55
2023/01/23 09:08:37;;;;;;;17.33;8.95;;;;;;;3.04;74.36;103678.69;5012193;28;20111;-57
2023/01/23 09:11:05;;;;;;;29.40;15.45;;;;;;;3.05;74.21;103682.16;5015081;28;20033;-59
2023/01/23 09:13:30;;;;;;;18.70;10.30;;;;;;;3.04;74.14;103686.50;5015997;28;20033;-56
2023/01/23 09:15:56;;;;;;;17.52;9.80;;;;;;;3.08;74.10;103677.00;5011196;28;20033;-56
2023/01/23 09:18:23;;;;;;;17.70;8.77;;;;;;;3.14;73.93;103684.06;5010182;28;20455;-57
2023/01/23 09:20:49;;;;;;;16.08;9.13;;;;;;;3.16;73.89;103682.38;5017941;28;20033;-57
2023/01/23 09:23:14;;;;;;;16.23;9.82;;;;;;;3.20;73.86;103679.00;5013437;28;20029;-58
2023/01/23 09:25:40;;;;;;;16.10;8.82;;;;;;;3.23;73.72;103680.78;5015911;28;20488;-58
2023/01/23 09:28:06;;;;;;;16.98;9.60;;;;;;;3.22;73.75;103685.13;5008298;28;20081;-56
2023/01/23 09:30:31;;;;;;;15.70;8.50;;;;;;;3.26;73.95;103688.66;5013746;28;20028;-55
2023/01/23 09:32:57;;;;;;;14.20;6.10;;;;;;;3.28;73.56;103695.63;5016491;28;20496;-56
2023/01/23 09:35:22;;;;;;;17.00;9.55;;;;;;;3.30;73.69;103699.16;5002218;28;20068;-56
2023/01/23 09:38:03;;;;;;;18.88;9.82;;;;;;;3.34;73.48;103707.88;5012125;28;20064;-56
2023/01/23 09:40:28;;;;;;;15.35;9.43;;;;;;;3.37;73.69;103712.31;5006597;28;20029;-57
2023/01/23 09:43:00;;;;;;;17.92;9.18;;;;;;;3.40;73.36;103715.84;5011801;28;20055;-56
2023/01/23 09:45:26;;;;;;;20.37;10.07;;;;;;;3.43;73.47;103721.13;5007460;28;20101;-56
2023/01/23 09:48:09;;;;;;;17.10;9.50;;;;;;;3.47;73.28;103727.25;5004385;28;20034;-57
2023/01/23 09:50:42;;;;;;;16.38;10.10;;;;;;;3.48;73.22;103723.81;5005519;28;20563;-56
2023/01/23 09:53:15;;;;;;;19.23;9.18;;;;;;;3.48;73.17;103729.88;5008723;28;20038;-56
2023/01/23 09:55:49;;;;;;;17.80;8.45;;;;;;;3.51;73.15;103732.53;5008843;28;20048;-57
2023/01/23 09:58:43;;;;;;;14.57;8.60;;;;;;;3.51;72.84;103734.28;5005176;28;20025;-58
2023/01/23 10:01:12;;;;;;;17.48;8.05;;;;;;;3.51;72.86;103726.47;5007939;28;20382;-56
2023/01/23 10:03:38;;;;;;;16.48;9.05;;;;;;;3.53;72.85;103727.38;5009608;28;20041;-56
2023/01/23 10:06:22;;;;;;;17.27;9.57;;;;;;;3.48;72.44;103729.00;5013042;28;20037;-57
2023/01/23 10:09:38;;;;;;;16.35;9.55;;;;;;;3.45;72.43;103734.16;5011373;28;20026;-57
2023/01/23 10:12:33;;;;;;;16.05;9.23;;;;;;;3.44;72.44;103748.00;4966345;28;20117;-56
2023/01/23 10:15:13;;;;;;;13.18;7.95;;;;;;;3.40;72.32;103746.22;4955048;28;20042;-58
2023/01/23 10:18:02;;;;;;;16.80;9.43;;;;;;;3.44;72.60;103742.81;5006699;28;20034;-59
2023/01/23 10:20:54;;;;;;;16.65;9.25;;;;;;;3.45;72.42;103739.34;5006304;28;20038;-55
2023/01/23 10:23:38;;;;;;;15.07;8.55;;;;;;;3.46;72.25;103741.13;5011727;28;20033;-54
2023/01/23 10:26:03;;;;;;;19.10;9.40;;;;;;;3.49;72.31;103752.47;5015230;28;20034;-55
2023/01/23 10:28:36;;;;;;;19.27;10.00;;;;;;;3.55;72.25;103746.53;5008968;28;20064;-56
2023/01/23 10:31:25;;;;;;;11.50;6.15;;;;;;;3.55;72.23;103751.72;5006222;28;20029;-58
2023/01/23 10:33:50;;;;;;;15.95;8.90;;;;;;;3.59;72.11;103756.13;5000513;28;20802;-56
2023/01/23 10:36:20;;;;;;;15.65;8.80;;;;;;;3.61;72.28;103757.03;5011907;28;20036;-58
2023/01/23 10:39:13;;;;;;;20.00;10.23;;;;;;;3.62;71.72;103756.19;5009674;28;20048;-56
2023/01/23 10:41:39;;;;;;;18.63;9.10;;;;;;;3.65;71.95;103753.66;5011479;28;20029;-57
2023/01/23 10:44:14;;;;;;;19.20;9.82;;;;;;;3.64;71.80;103754.50;5006213;28;20022;-56
2023/01/23 10:46:47;;;;;;;17.58;9.82;;;;;;;3.65;71.89;103753.66;5011016;28;20117;-57
2023/01/23 10:49:42;;;;;;;22.92;10.07;;;;;;;3.65;72.00;103748.47;5021290;28;20030;-57
2023/01/23 10:52:43;;;;;;;21.08;10.52;;;;;;;3.68;71.98;103755.44;5007265;28;20350;-57
2023/01/23 10:55:18;;;;;;;20.77;10.88;;;;;;;3.72;71.87;103759.88;5012307;28;20030;-59
2023/01/23 10:57:48;;;;;;;21.92;11.93;;;;;;;3.77;71.70;103762.56;5004616;28;20381;-55
2023/01/23 11:00:35;;;;;;;17.20;9.30;;;;;;;3.73;71.38;103750.31;5004892;28;20087;-57
2023/01/23 11:03:25;;;;;;;17.13;10.18;;;;;;;3.70;71.39;103758.97;5005050;28;20029;-55
2023/01/23 11:06:14;;;;;;;18.00;9.25;;;;;;;3.66;71.62;103760.63;5008860;28;20101;-55
2023/01/23 11:08:54;;;;;;;18.08;9.55;;;;;;;3.58;71.50;103762.19;5001214;28;20023;-54
2023/01/23 11:11:28;;;;;;;17.67;9.77;;;;;;;3.59;71.76;103758.75;5010463;28;20363;-53
2023/01/23 11:14:05;;;;;;;16.02;9.15;;;;;;;3.59;71.72;103750.94;5009245;28;20041;-55
2023/01/23 11:16:31;;;;;;;19.30;10.32;;;;;;;3.60;71.59;103754.44;5007619;28;20118;-56
2023/01/23 11:19:09;;;;;;;17.45;10.02;;;;;;;3.62;71.49;103760.53;5008733;28;20026;-56
2023/01/23 11:21:49;;;;;;;20.67;10.52;;;;;;;3.61;71.55;103762.25;5011878;28;20088;-54
2023/01/23 11:24:19;;;;;;;18.95;9.30;;;;;;;3.61;71.31;103751.84;5014983;28;20396;-55
2023/01/23 11:26:45;;;;;;;22.17;10.05;;;;;;;3.62;71.43;103758.81;5010845;28;20029;-53
2023/01/23 11:29:41;;;;;;;14.38;8.40;;;;;;;3.64;71.51;103753.63;5010042;28;20038;-52
2023/01/23 11:32:12;;;;;;;19.73;9.43;;;;;;;3.65;71.30;103743.25;5009003;28;20026;-53